sensor_id;sensor_type;location;lat;lon;timestamp;pressure;altitude;pressure_sealevel;temperature;humidity
69909;BME280;57190;47.918;8.112;2023-07-24T00:00:14;90470.31;;;16.77;63.51
69909;BME280;57190;47.918;8.112;2023-07-24T00:02:40;90463.84;;;16.78;63.49
69909;BME280;57190;47.918;8.112;2023-07-24T00:05:05;90453.88;;;16.78;63.87
69909;BME280;57190;47.918;8.112;2023-07-24T00:07:31;90459.06;;;16.75;63.50
69909;BME280;57190;47.918;8.112;2023-07-24T00:09:59;90454.16;;;16.77;63.29
69909;BME280;57190;47.918;8.112;2023-07-24T00:12:25;90457.22;;;16.93;62.92
69909;BME280;57190;47.918;8.112;2023-07-24T00:14:52;90453.75;;;17.01;62.23
69909;BME280;57190;47.918;8.112;2023-07-24T00:17:18;90452.50;;;16.99;62.94
69909;BME280;57190;47.918;8.112;2023-07-24T00:19:43;90451.16;;;16.87;63.98
69909;BME280;57190;47.918;8.112;2023-07-24T00:22:09;90454.31;;;16.80;64.35
69909;BME280;57190;47.918;8.112;2023-07-24T00:24:34;90464.44;;;16.75;64.29
69909;BME280;57190;47.918;8.112;2023-07-24T00:27:00;90465.09;;;16.72;64.71
69909;BME280;57190;47.918;8.112;2023-07-24T00:29:31;90465.59;;;16.74;64.79
69909;BME280;57190;47.918;8.112;2023-07-24T00:31:57;90468.41;;;16.69;65.07
69909;BME280;57190;47.918;8.112;2023-07-24T00:34:22;90470.91;;;16.56;65.17
69909;BME280;57190;47.918;8.112;2023-07-24T00:36:48;90481.53;;;16.53;65.24
69909;BME280;57190;47.918;8.112;2023-07-24T00:39:14;90469.63;;;16.45;65.86
69909;BME280;57190;47.918;8.112;2023-07-24T00:41:40;90464.50;;;16.34;66.28
69909;BME280;57190;47.918;8.112;2023-07-24T00:44:06;90473.56;;;16.39;65.95
69909;BME280;57190;47.918;8.112;2023-07-24T00:46:32;90476.09;;;16.35;66.02
69909;BME280;57190;47.918;8.112;2023-07-24T00:49:00;90470.22;;;16.33;66.19
69909;BME280;57190;47.918;8.112;2023-07-24T00:51:27;90467.19;;;16.34;66.13
69909;BME280;57190;47.918;8.112;2023-07-24T00:53:55;90455.81;;;16.38;65.88
69909;BME280;57190;47.918;8.112;2023-07-24T00:56:24;90454.72;;;16.39;65.74
69909;BME280;57190;47.918;8.112;2023-07-24T00:58:49;90451.09;;;16.43;65.87
69909;BME280;57190;47.918;8.112;2023-07-24T01:01:16;90448.22;;;16.40;66.04
69909;BME280;57190;47.918;8.112;2023-07-24T01:03:43;90437.31;;;16.45;65.30
69909;BME280;57190;47.918;8.112;2023-07-24T01:06:09;90434.28;;;16.46;65.33
69909;BME280;57190;47.918;8.112;2023-07-24T01:08:35;90422.59;;;16.42;65.99
69909;BME280;57190;47.918;8.112;2023-07-24T01:11:50;90411.19;;;16.45;65.75
69909;BME280;57190;47.918;8.112;2023-07-24T01:13:56;90412.75;;;16.46;65.93
69909;BME280;57190;47.918;8.112;2023-07-24T01:16:27;90399.47;;;16.50;65.62
69909;BME280;57190;47.918;8.112;2023-07-24T01:18:57;90397.59;;;16.50;65.48
69909;BME280;57190;47.918;8.112;2023-07-24T01:21:32;90388.56;;;16.55;65.28
69909;BME280;57190;47.918;8.112;2023-07-24T01:24:09;90390.00;;;16.53;65.16
69909;BME280;57190;47.918;8.112;2023-07-24T01:26:42;90381.91;;;16.53;65.14
69909;BME280;57190;47.918;8.112;2023-07-24T01:29:08;90374.47;;;16.58;64.96
69909;BME280;57190;47.918;8.112;2023-07-24T01:31:34;90375.44;;;16.54;64.93
69909;BME280;57190;47.918;8.112;2023-07-24T01:34:02;90374.09;;;16.33;65.72
69909;BME280;57190;47.918;8.112;2023-07-24T01:36:31;90378.81;;;16.19;66.12
69909;BME280;57190;47.918;8.112;2023-07-24T01:38:57;90381.63;;;16.05;66.65
69909;BME280;57190;47.918;8.112;2023-07-24T01:41:23;90386.50;;;15.94;67.40
69909;BME280;57190;47.918;8.112;2023-07-24T01:43:52;90387.44;;;15.90;67.41
69909;BME280;57190;47.918;8.112;2023-07-24T01:46:18;90368.75;;;15.84;67.39
69909;BME280;57190;47.918;8.112;2023-07-24T01:48:44;90376.13;;;15.79;67.43
69909;BME280;57190;47.918;8.112;2023-07-24T01:51:12;90381.19;;;15.71;67.86
69909;BME280;57190;47.918;8.112;2023-07-24T01:53:37;90373.09;;;15.71;68.00
69909;BME280;57190;47.918;8.112;2023-07-24T01:56:03;90366.75;;;15.67;68.18
69909;BME280;57190;47.918;8.112;2023-07-24T01:58:29;90370.69;;;15.61;68.32
69909;BME280;57190;47.918;8.112;2023-07-24T02:00:57;90369.59;;;15.71;67.55
69909;BME280;57190;47.918;8.112;2023-07-24T02:03:22;90372.97;;;15.77;67.46
69909;BME280;57190;47.918;8.112;2023-07-24T02:05:54;90364.28;;;15.80;67.30
69909;BME280;57190;47.918;8.112;2023-07-24T02:08:19;90373.34;;;15.84;67.19
69909;BME280;57190;47.918;8.112;2023-07-24T02:10:48;90361.47;;;15.85;67.33
69909;BME280;57190;47.918;8.112;2023-07-24T02:13:17;90360.69;;;15.84;67.27
69909;BME280;57190;47.918;8.112;2023-07-24T02:15:42;90358.56;;;15.72;67.48
69909;BME280;57190;47.918;8.112;2023-07-24T02:18:08;90333.84;;;15.62;68.00
69909;BME280;57190;47.918;8.112;2023-07-24T02:20:33;90343.56;;;15.49;68.49
69909;BME280;57190;47.918;8.112;2023-07-24T02:22:59;90342.72;;;15.62;68.40
69909;BME280;57190;47.918;8.112;2023-07-24T02:25:24;90334.22;;;15.78;67.58
69909;BME280;57190;47.918;8.112;2023-07-24T02:27:50;90337.75;;;15.87;67.96
69909;BME280;57190;47.918;8.112;2023-07-24T02:30:15;90337.59;;;15.92;67.63
69909;BME280;57190;47.918;8.112;2023-07-24T02:32:41;90340.50;;;16.05;67.24
69909;BME280;57190;47.918;8.112;2023-07-24T02:35:07;90337.16;;;16.08;66.93
69909;BME280;57190;47.918;8.112;2023-07-24T02:37:32;90334.03;;;16.06;67.44
69909;BME280;57190;47.918;8.112;2023-07-24T02:39:58;90332.44;;;16.05;67.39
69909;BME280;57190;47.918;8.112;2023-07-24T02:42:23;90329.25;;;16.02;67.34
69909;BME280;57190;47.918;8.112;2023-07-24T02:44:49;90334.03;;;16.06;67.27
69909;BME280;57190;47.918;8.112;2023-07-24T02:47:15;90330.53;;;16.05;67.39
69909;BME280;57190;47.918;8.112;2023-07-24T02:49:40;90328.00;;;16.00;67.87
69909;BME280;57190;47.918;8.112;2023-07-24T02:52:05;90332.91;;;16.07;67.56
69909;BME280;57190;47.918;8.112;2023-07-24T02:54:33;90325.63;;;16.07;67.60
69909;BME280;57190;47.918;8.112;2023-07-24T02:56:59;90325.31;;;16.09;67.75
69909;BME280;57190;47.918;8.112;2023-07-24T02:59:24;90326.91;;;16.10;67.76
69909;BME280;57190;47.918;8.112;2023-07-24T03:01:53;90329.41;;;16.06;67.44
69909;BME280;57190;47.918;8.112;2023-07-24T03:04:21;90331.16;;;16.11;67.38
69909;BME280;57190;47.918;8.112;2023-07-24T03:06:47;90343.53;;;16.12;67.52
69909;BME280;57190;47.918;8.112;2023-07-24T03:09:12;90342.25;;;16.18;67.31
69909;BME280;57190;47.918;8.112;2023-07-24T03:11:38;90332.47;;;16.22;67.35
69909;BME280;57190;47.918;8.112;2023-07-24T03:14:03;90339.72;;;16.22;67.99
69909;BME280;57190;47.918;8.112;2023-07-24T03:16:29;90328.69;;;16.23;68.20
69909;BME280;57190;47.918;8.112;2023-07-24T03:18:54;90324.88;;;16.24;68.15
69909;BME280;57190;47.918;8.112;2023-07-24T03:21:21;90330.56;;;16.23;68.04
69909;BME280;57190;47.918;8.112;2023-07-24T03:23:46;90324.88;;;16.24;68.49
69909;BME280;57190;47.918;8.112;2023-07-24T03:26:12;90328.69;;;16.32;68.84
69909;BME280;57190;47.918;8.112;2023-07-24T03:28:37;90330.91;;;16.39;68.74
69909;BME280;57190;47.918;8.112;2023-07-24T03:31:03;90326.94;;;16.45;68.72
69909;BME280;57190;47.918;8.112;2023-07-24T03:33:28;90340.09;;;16.55;69.00
69909;BME280;57190;47.918;8.112;2023-07-24T03:35:54;90338.84;;;16.61;68.97
69909;BME280;57190;47.918;8.112;2023-07-24T03:38:20;90318.41;;;16.69;68.71
69909;BME280;57190;47.918;8.112;2023-07-24T03:40:46;90305.56;;;16.75;68.76
69909;BME280;57190;47.918;8.112;2023-07-24T03:43:15;90310.66;;;16.76;68.68
69909;BME280;57190;47.918;8.112;2023-07-24T03:45:41;90311.28;;;16.73;68.76
69909;BME280;57190;47.918;8.112;2023-07-24T03:48:09;90306.38;;;16.75;68.97
69909;BME280;57190;47.918;8.112;2023-07-24T03:50:35;90300.81;;;16.80;68.93
69909;BME280;57190;47.918;8.112;2023-07-24T03:53:00;90296.69;;;16.83;68.97
69909;BME280;57190;47.918;8.112;2023-07-24T03:55:26;90290.84;;;16.81;69.06
69909;BME280;57190;47.918;8.112;2023-07-24T03:57:52;90290.38;;;16.79;69.40
69909;BME280;57190;47.918;8.112;2023-07-24T04:00:17;90290.84;;;16.81;69.22
69909;BME280;57190;47.918;8.112;2023-07-24T04:02:44;90292.44;;;16.82;69.35
69909;BME280;57190;47.918;8.112;2023-07-24T04:05:09;90285.91;;;16.83;69.19
69909;BME280;57190;47.918;8.112;2023-07-24T04:07:35;90302.25;;;16.87;69.10
69909;BME280;57190;47.918;8.112;2023-07-24T04:10:02;90311.59;;;16.89;69.69
69909;BME280;57190;47.918;8.112;2023-07-24T04:12:29;90317.94;;;16.93;69.67
69909;BME280;57190;47.918;8.112;2023-07-24T04:14:54;90316.19;;;16.97;69.79
69909;BME280;57190;47.918;8.112;2023-07-24T04:17:20;90321.41;;;17.03;69.91
69909;BME280;57190;47.918;8.112;2023-07-24T04:19:45;90333.13;;;17.16;69.10
69909;BME280;57190;47.918;8.112;2023-07-24T04:22:14;90329.81;;;17.19;69.06
69909;BME280;57190;47.918;8.112;2023-07-24T04:24:39;90325.53;;;17.18;69.62
69909;BME280;57190;47.918;8.112;2023-07-24T04:27:05;90327.72;;;17.24;69.09
69909;BME280;57190;47.918;8.112;2023-07-24T04:29:31;90332.78;;;17.26;69.27
69909;BME280;57190;47.918;8.112;2023-07-24T04:31:56;90337.84;;;17.27;69.56
69909;BME280;57190;47.918;8.112;2023-07-24T04:34:25;90354.50;;;17.29;69.55
69909;BME280;57190;47.918;8.112;2023-07-24T04:36:53;90354.19;;;17.40;69.61
69909;BME280;57190;47.918;8.112;2023-07-24T04:39:19;90365.88;;;17.53;69.33
69909;BME280;57190;47.918;8.112;2023-07-24T04:41:45;90368.53;;;17.70;69.11
69909;BME280;57190;47.918;8.112;2023-07-24T04:44:16;90373.75;;;17.75;69.18
69909;BME280;57190;47.918;8.112;2023-07-24T04:46:42;90390.53;;;17.81;68.81
69909;BME280;57190;47.918;8.112;2023-07-24T04:49:07;90409.88;;;17.92;68.43
69909;BME280;57190;47.918;8.112;2023-07-24T04:51:44;90414.47;;;18.00;68.66
69909;BME280;57190;47.918;8.112;2023-07-24T04:54:10;90416.84;;;18.02;68.26
69909;BME280;57190;47.918;8.112;2023-07-24T04:56:35;90424.16;;;18.01;68.65
69909;BME280;57190;47.918;8.112;2023-07-24T04:59:13;90416.84;;;18.02;67.75
69909;BME280;57190;47.918;8.112;2023-07-24T05:01:39;90441.59;;;17.95;68.78
69909;BME280;57190;47.918;8.112;2023-07-24T05:04:17;90457.97;;;17.81;70.00
69909;BME280;57190;47.918;8.112;2023-07-24T05:06:42;90477.97;;;17.80;70.26
69909;BME280;57190;47.918;8.112;2023-07-24T05:09:08;90470.22;;;17.70;70.88
69909;BME280;57190;47.918;8.112;2023-07-24T05:11:33;90489.28;;;17.47;71.22
69909;BME280;57190;47.918;8.112;2023-07-24T05:13:59;90458.34;;;17.36;70.33
69909;BME280;57190;47.918;8.112;2023-07-24T05:16:27;90444.41;;;17.25;71.14
69909;BME280;57190;47.918;8.112;2023-07-24T05:18:53;90438.22;;;17.16;70.66
69909;BME280;57190;47.918;8.112;2023-07-24T05:21:18;90446.63;;;16.96;71.95
69909;BME280;57190;47.918;8.112;2023-07-24T05:23:44;90425.50;;;16.81;73.07
69909;BME280;57190;47.918;8.112;2023-07-24T05:26:09;90417.41;;;16.63;73.95
69909;BME280;57190;47.918;8.112;2023-07-24T05:28:35;90388.06;;;16.44;75.83
69909;BME280;57190;47.918;8.112;2023-07-24T05:31:02;90268.19;;;16.21;76.37
69909;BME280;57190;47.918;8.112;2023-07-24T05:33:28;90297.31;;;16.10;77.72
69909;BME280;57190;47.918;8.112;2023-07-24T05:36:01;90302.19;;;15.99;78.07
69909;BME280;57190;47.918;8.112;2023-07-24T05:38:27;90315.16;;;15.97;78.70
69909;BME280;57190;47.918;8.112;2023-07-24T05:41:00;90335.44;;;16.03;79.04
69909;BME280;57190;47.918;8.112;2023-07-24T05:43:26;90328.31;;;16.07;78.96
69909;BME280;57190;47.918;8.112;2023-07-24T05:45:53;90334.97;;;16.10;78.69
69909;BME280;57190;47.918;8.112;2023-07-24T05:48:19;90325.00;;;16.10;78.93
69909;BME280;57190;47.918;8.112;2023-07-24T05:50:45;90344.63;;;16.11;79.08
69909;BME280;57190;47.918;8.112;2023-07-24T05:53:10;90344.47;;;16.16;79.10
69909;BME280;57190;47.918;8.112;2023-07-24T05:55:35;90353.19;;;16.13;79.12
69909;BME280;57190;47.918;8.112;2023-07-24T05:58:01;90356.03;;;16.16;79.26
69909;BME280;57190;47.918;8.112;2023-07-24T06:00:27;90357.31;;;16.19;79.43
69909;BME280;57190;47.918;8.112;2023-07-24T06:02:53;90358.28;;;16.23;79.73
69909;BME280;57190;47.918;8.112;2023-07-24T06:05:18;90349.09;;;16.24;79.69
69909;BME280;57190;47.918;8.112;2023-07-24T06:07:45;90350.38;;;16.27;80.11
69909;BME280;57190;47.918;8.112;2023-07-24T06:10:11;90353.72;;;16.32;80.41
69909;BME280;57190;47.918;8.112;2023-07-24T06:12:36;90348.50;;;16.36;81.13
69909;BME280;57190;47.918;8.112;2023-07-24T06:15:02;90367.31;;;16.36;80.91
69909;BME280;57190;47.918;8.112;2023-07-24T06:17:28;90356.41;;;16.41;80.95
69909;BME280;57190;47.918;8.112;2023-07-24T06:19:54;90357.97;;;16.42;77.76
69909;BME280;57190;47.918;8.112;2023-07-24T06:22:19;90352.44;;;16.65;73.94
69909;BME280;57190;47.918;8.112;2023-07-24T06:24:44;90349.59;;;16.88;73.74
69909;BME280;57190;47.918;8.112;2023-07-24T06:27:10;90349.00;;;17.00;74.75
69909;BME280;57190;47.918;8.112;2023-07-24T06:29:35;90350.91;;;17.08;74.94
69909;BME280;57190;47.918;8.112;2023-07-24T06:32:01;90356.75;;;17.19;74.03
69909;BME280;57190;47.918;8.112;2023-07-24T06:34:26;90366.56;;;17.23;75.58
69909;BME280;57190;47.918;8.112;2023-07-24T06:36:52;90379.72;;;17.25;74.29
69909;BME280;57190;47.918;8.112;2023-07-24T06:39:17;90386.06;;;17.20;74.33
69909;BME280;57190;47.918;8.112;2023-07-24T06:41:43;90388.78;;;17.11;74.12
69909;BME280;57190;47.918;8.112;2023-07-24T06:44:08;90390.50;;;17.07;73.09
69909;BME280;57190;47.918;8.112;2023-07-24T06:46:33;90383.84;;;16.96;73.73
69909;BME280;57190;47.918;8.112;2023-07-24T06:48:59;90391.59;;;16.80;74.59
69909;BME280;57190;47.918;8.112;2023-07-24T06:51:24;90407.72;;;16.71;74.30
69909;BME280;57190;47.918;8.112;2023-07-24T06:53:50;90416.94;;;16.70;74.10
69909;BME280;57190;47.918;8.112;2023-07-24T06:56:15;90427.53;;;16.66;73.55
69909;BME280;57190;47.918;8.112;2023-07-24T06:58:41;90431.81;;;16.67;73.14
69909;BME280;57190;47.918;8.112;2023-07-24T07:01:07;90420.59;;;16.65;73.21
69909;BME280;57190;47.918;8.112;2023-07-24T07:03:32;90411.38;;;16.66;73.62
69909;BME280;57190;47.918;8.112;2023-07-24T07:06:00;90410.13;;;16.81;72.60
69909;BME280;57190;47.918;8.112;2023-07-24T07:08:26;90390.47;;;16.90;72.30
69909;BME280;57190;47.918;8.112;2023-07-24T07:10:59;90378.00;;;17.03;71.11
69909;BME280;57190;47.918;8.112;2023-07-24T07:13:25;90387.34;;;17.14;69.75
69909;BME280;57190;47.918;8.112;2023-07-24T07:15:50;90387.03;;;17.16;69.83
69909;BME280;57190;47.918;8.112;2023-07-24T07:18:25;90390.81;;;17.23;69.40
69909;BME280;57190;47.918;8.112;2023-07-24T07:21:02;90392.72;;;17.32;69.44
69909;BME280;57190;47.918;8.112;2023-07-24T07:23:49;90387.94;;;17.46;70.49
69909;BME280;57190;47.918;8.112;2023-07-24T07:26:17;90398.88;;;17.58;69.95
69909;BME280;57190;47.918;8.112;2023-07-24T07:28:43;90421.03;;;17.64;70.41
69909;BME280;57190;47.918;8.112;2023-07-24T07:31:10;90417.56;;;17.64;70.81
69909;BME280;57190;47.918;8.112;2023-07-24T07:33:36;90413.59;;;17.61;70.96
69909;BME280;57190;47.918;8.112;2023-07-24T07:36:01;90414.09;;;17.54;71.31
69909;BME280;57190;47.918;8.112;2023-07-24T07:38:29;90404.41;;;17.53;71.94
69909;BME280;57190;47.918;8.112;2023-07-24T07:40:55;90406.81;;;17.46;71.62
69909;BME280;57190;47.918;8.112;2023-07-24T07:43:23;90389.22;;;17.40;71.23
69909;BME280;57190;47.918;8.112;2023-07-24T07:45:49;90382.88;;;17.36;71.61
69909;BME280;57190;47.918;8.112;2023-07-24T07:48:15;90390.47;;;17.34;72.57
69909;BME280;57190;47.918;8.112;2023-07-24T07:50:40;90386.38;;;17.27;72.76
69909;BME280;57190;47.918;8.112;2023-07-24T07:53:06;90389.72;;;17.24;72.52
69909;BME280;57190;47.918;8.112;2023-07-24T07:55:31;90390.03;;;17.23;73.43
69909;BME280;57190;47.918;8.112;2023-07-24T07:57:57;90383.03;;;17.22;73.88
69909;BME280;57190;47.918;8.112;2023-07-24T08:00:22;90373.69;;;17.19;74.53
69909;BME280;57190;47.918;8.112;2023-07-24T08:02:48;90363.09;;;17.14;75.36
69909;BME280;57190;47.918;8.112;2023-07-24T08:05:13;90360.09;;;17.07;75.40
69909;BME280;57190;47.918;8.112;2023-07-24T08:07:41;90366.59;;;17.06;75.99
69909;BME280;57190;47.918;8.112;2023-07-24T08:10:10;90360.88;;;17.07;76.15
69909;BME280;57190;47.918;8.112;2023-07-24T08:12:39;90349.91;;;17.12;76.56
69909;BME280;57190;47.918;8.112;2023-07-24T08:15:13;90346.59;;;17.16;76.01
69909;BME280;57190;47.918;8.112;2023-07-24T08:17:44;90342.03;;;17.16;76.55
69909;BME280;57190;47.918;8.112;2023-07-24T08:20:10;90337.88;;;17.19;76.61
69909;BME280;57190;47.918;8.112;2023-07-24T08:22:36;90335.66;;;17.21;77.36
69909;BME280;57190;47.918;8.112;2023-07-24T08:25:02;90318.38;;;17.22;78.17
69909;BME280;57190;47.918;8.112;2023-07-24T08:27:27;90287.47;;;17.19;78.58
69909;BME280;57190;47.918;8.112;2023-07-24T08:29:53;90251.81;;;17.22;78.74
69909;BME280;57190;47.918;8.112;2023-07-24T08:32:21;90236.25;;;17.19;79.00
69909;BME280;57190;47.918;8.112;2023-07-24T08:34:47;90236.25;;;17.19;77.85
69909;BME280;57190;47.918;8.112;2023-07-24T08:37:13;90241.44;;;17.33;76.81
69909;BME280;57190;47.918;8.112;2023-07-24T08:39:38;90246.00;;;17.41;76.46
69909;BME280;57190;47.918;8.112;2023-07-24T08:42:11;90244.56;;;17.44;76.27
69909;BME280;57190;47.918;8.112;2023-07-24T08:44:38;90254.06;;;17.50;76.10
69909;BME280;57190;47.918;8.112;2023-07-24T08:47:04;90263.88;;;17.55;77.74
69909;BME280;57190;47.918;8.112;2023-07-24T08:49:30;90268.63;;;17.58;78.35
69909;BME280;57190;47.918;8.112;2023-07-24T08:51:56;90281.31;;;17.57;78.27
69909;BME280;57190;47.918;8.112;2023-07-24T08:54:23;90278.94;;;17.56;78.64
69909;BME280;57190;47.918;8.112;2023-07-24T08:56:51;90280.84;;;17.55;79.00
69909;BME280;57190;47.918;8.112;2023-07-24T08:59:17;90285.13;;;17.56;79.52
69909;BME280;57190;47.918;8.112;2023-07-24T09:01:43;90288.47;;;17.53;78.82
69909;BME280;57190;47.918;8.112;2023-07-24T09:04:09;90287.22;;;17.51;78.50
69909;BME280;57190;47.918;8.112;2023-07-24T09:06:35;90291.03;;;17.50;78.77
69909;BME280;57190;47.918;8.112;2023-07-24T09:09:01;90291.81;;;17.50;78.90
69909;BME280;57190;47.918;8.112;2023-07-24T09:11:26;90291.94;;;17.63;78.89
69909;BME280;57190;47.918;8.112;2023-07-24T09:13:52;90292.69;;;17.72;78.32
69909;BME280;57190;47.918;8.112;2023-07-24T09:16:25;90289.00;;;17.76;78.54
69909;BME280;57190;47.918;8.112;2023-07-24T09:18:52;90274.06;;;17.88;78.71
69909;BME280;57190;47.918;8.112;2023-07-24T09:21:29;90254.16;;;18.01;77.57
69909;BME280;57190;47.918;8.112;2023-07-24T09:23:55;90252.44;;;17.97;77.34
69909;BME280;57190;47.918;8.112;2023-07-24T09:26:20;90244.22;;;17.84;76.83
69909;BME280;57190;47.918;8.112;2023-07-24T09:28:53;90282.09;;;17.67;77.50
69909;BME280;57190;47.918;8.112;2023-07-24T09:31:18;90383.78;;;17.57;78.15
69909;BME280;57190;47.918;8.112;2023-07-24T09:33:44;90490.06;;;17.48;79.04
69909;BME280;57190;47.918;8.112;2023-07-24T09:36:10;90501.75;;;16.99;81.07
69909;BME280;57190;47.918;8.112;2023-07-24T09:38:36;90510.66;;;16.59;84.08
69909;BME280;57190;47.918;8.112;2023-07-24T09:41:08;90472.41;;;16.31;84.27
69909;BME280;57190;47.918;8.112;2023-07-24T09:43:42;90435.34;;;16.19;84.27
69909;BME280;57190;47.918;8.112;2023-07-24T09:46:09;90416.16;;;16.12;83.40
69909;BME280;57190;47.918;8.112;2023-07-24T09:48:35;90411.88;;;16.11;83.80
69909;BME280;57190;47.918;8.112;2023-07-24T09:51:02;90392.72;;;16.03;83.46
69909;BME280;57190;47.918;8.112;2023-07-24T09:53:46;90383.97;;;15.89;82.55
69909;BME280;57190;47.918;8.112;2023-07-24T09:56:14;90371.31;;;15.90;82.99
69909;BME280;57190;47.918;8.112;2023-07-24T09:58:44;90369.19;;;15.78;82.47
69909;BME280;57190;47.918;8.112;2023-07-24T10:01:10;90375.81;;;15.71;82.92
69909;BME280;57190;47.918;8.112;2023-07-24T10:03:44;90399.00;;;15.67;82.83
69909;BME280;57190;47.918;8.112;2023-07-24T10:06:10;90390.28;;;15.62;83.40
69909;BME280;57190;47.918;8.112;2023-07-24T10:08:37;90400.84;;;15.58;82.98
69909;BME280;57190;47.918;8.112;2023-07-24T10:11:03;90450.00;;;15.50;83.43
69909;BME280;57190;47.918;8.112;2023-07-24T10:13:29;90472.72;;;15.44;83.96
69909;BME280;57190;47.918;8.112;2023-07-24T10:15:55;90479.94;;;15.34;83.58
69909;BME280;57190;47.918;8.112;2023-07-24T10:18:28;90467.91;;;15.32;83.37
69909;BME280;57190;47.918;8.112;2023-07-24T10:21:03;90494.72;;;15.23;84.24
69909;BME280;57190;47.918;8.112;2023-07-24T10:23:29;90482.66;;;15.20;83.86
69909;BME280;57190;47.918;8.112;2023-07-24T10:25:54;90436.13;;;15.11;83.44
69909;BME280;57190;47.918;8.112;2023-07-24T10:28:33;90410.63;;;15.00;83.14
69909;BME280;57190;47.918;8.112;2023-07-24T10:31:08;90384.91;;;15.07;83.51
69909;BME280;57190;47.918;8.112;2023-07-24T10:33:46;90362.56;;;15.21;82.86
69909;BME280;57190;47.918;8.112;2023-07-24T10:36:12;90372.00;;;15.41;82.72
69909;BME280;57190;47.918;8.112;2023-07-24T10:38:41;90375.22;;;15.52;82.21
69909;BME280;57190;47.918;8.112;2023-07-24T10:41:09;90342.22;;;15.60;82.34
69909;BME280;57190;47.918;8.112;2023-07-24T10:43:42;90314.91;;;15.67;82.18
69909;BME280;57190;47.918;8.112;2023-07-24T10:46:08;90291.34;;;15.72;81.62
69909;BME280;57190;47.918;8.112;2023-07-24T10:48:34;90300.13;;;15.87;82.17
69909;BME280;57190;47.918;8.112;2023-07-24T10:51:06;90303.66;;;16.14;81.94
69909;BME280;57190;47.918;8.112;2023-07-24T10:53:35;90291.63;;;16.38;81.70
69909;BME280;57190;47.918;8.112;2023-07-24T10:56:00;90291.16;;;16.53;79.18
69909;BME280;57190;47.918;8.112;2023-07-24T10:58:27;90287.69;;;16.61;78.69
69909;BME280;57190;47.918;8.112;2023-07-24T11:00:52;90292.88;;;16.66;78.57
69909;BME280;57190;47.918;8.112;2023-07-24T11:03:19;90288.28;;;16.76;79.02
69909;BME280;57190;47.918;8.112;2023-07-24T11:05:45;90292.59;;;16.94;79.36
69909;BME280;57190;47.918;8.112;2023-07-24T11:08:16;90295.59;;;17.10;79.65
69909;BME280;57190;47.918;8.112;2023-07-24T11:10:49;90296.94;;;17.25;80.05
69909;BME280;57190;47.918;8.112;2023-07-24T11:13:16;90294.59;;;17.24;79.72
69909;BME280;57190;47.918;8.112;2023-07-24T11:15:42;90288.28;;;17.20;78.13
69909;BME280;57190;47.918;8.112;2023-07-24T11:18:07;90294.09;;;17.22;79.40
69909;BME280;57190;47.918;8.112;2023-07-24T11:20:37;90286.97;;;17.26;79.70
69909;BME280;57190;47.918;8.112;2023-07-24T11:23:03;90294.25;;;17.34;80.05
69909;BME280;57190;47.918;8.112;2023-07-24T11:25:29;90296.41;;;17.50;79.64
69909;BME280;57190;47.918;8.112;2023-07-24T11:27:54;90296.84;;;17.60;79.19
69909;BME280;57190;47.918;8.112;2023-07-24T11:30:20;90310.13;;;17.74;78.92
69909;BME280;57190;47.918;8.112;2023-07-24T11:32:46;90306.44;;;17.88;79.37
69909;BME280;57190;47.918;8.112;2023-07-24T11:35:13;90308.03;;;18.19;79.03
69909;BME280;57190;47.918;8.112;2023-07-24T11:37:39;90303.13;;;18.42;79.65
69909;BME280;57190;47.918;8.112;2023-07-24T11:40:05;90301.53;;;18.62;80.58
69909;BME280;57190;47.918;8.112;2023-07-24T11:42:43;90309.91;;;18.48;76.24
69909;BME280;57190;47.918;8.112;2023-07-24T11:45:09;90316.88;;;18.28;76.62
69909;BME280;57190;47.918;8.112;2023-07-24T11:47:50;90308.06;;;18.10;77.55
69909;BME280;57190;47.918;8.112;2023-07-24T11:50:18;90324.31;;;18.01;78.62
69909;BME280;57190;47.918;8.112;2023-07-24T11:52:45;90311.97;;;17.91;78.11
69909;BME280;57190;47.918;8.112;2023-07-24T11:55:16;90322.50;;;17.75;77.97
69909;BME280;57190;47.918;8.112;2023-07-24T11:57:42;90316.81;;;17.59;78.27
69909;BME280;57190;47.918;8.112;2023-07-24T12:00:21;90307.00;;;17.64;77.58
69909;BME280;57190;47.918;8.112;2023-07-24T12:02:46;90292.59;;;17.89;77.63
69909;BME280;57190;47.918;8.112;2023-07-24T12:05:12;90302.28;;;18.20;76.23
69909;BME280;57190;47.918;8.112;2023-07-24T12:07:38;90300.34;;;18.51;76.54
69909;BME280;57190;47.918;8.112;2023-07-24T12:10:05;90293.22;;;18.89;75.27
69909;BME280;57190;47.918;8.112;2023-07-24T12:12:46;90286.69;;;19.11;75.93
69909;BME280;57190;47.918;8.112;2023-07-24T12:15:13;90298.97;;;19.08;73.95
69909;BME280;57190;47.918;8.112;2023-07-24T12:17:39;90307.81;;;18.96;74.12
69909;BME280;57190;47.918;8.112;2023-07-24T12:20:06;90293.69;;;18.91;72.74
69909;BME280;57190;47.918;8.112;2023-07-24T12:22:34;90280.66;;;18.72;73.47
69909;BME280;57190;47.918;8.112;2023-07-24T12:25:00;90267.44;;;18.58;73.36
69909;BME280;57190;47.918;8.112;2023-07-24T12:27:26;90274.00;;;18.48;74.23
69909;BME280;57190;47.918;8.112;2023-07-24T12:29:52;90268.19;;;18.37;75.59
69909;BME280;57190;47.918;8.112;2023-07-24T12:32:17;90271.34;;;18.18;75.48
69909;BME280;57190;47.918;8.112;2023-07-24T12:34:45;90265.16;;;17.96;75.29
69909;BME280;57190;47.918;8.112;2023-07-24T12:37:10;90267.09;;;17.78;76.78
69909;BME280;57190;47.918;8.112;2023-07-24T12:39:36;90253.19;;;17.67;76.15
69909;BME280;57190;47.918;8.112;2023-07-24T12:42:01;90245.53;;;17.48;77.14
69909;BME280;57190;47.918;8.112;2023-07-24T12:44:27;90243.50;;;17.36;76.91
69909;BME280;57190;47.918;8.112;2023-07-24T12:46:53;90273.34;;;17.22;77.42
69909;BME280;57190;47.918;8.112;2023-07-24T12:49:18;90283.38;;;17.04;79.13
69909;BME280;57190;47.918;8.112;2023-07-24T12:51:43;90292.75;;;16.98;79.59
69909;BME280;57190;47.918;8.112;2023-07-24T12:54:09;90252.81;;;16.91;80.32
69909;BME280;57190;47.918;8.112;2023-07-24T12:56:34;90258.53;;;16.81;81.67
69909;BME280;57190;47.918;8.112;2023-07-24T12:59:01;90251.56;;;16.80;81.49